createdAt,value
2022-08-04T00:00:19.251Z,99953.41
2022-08-04T00:01:05.541Z,99947.25
2022-08-04T00:01:45.349Z,99957.75
2022-08-04T00:02:27.521Z,99954.22
2022-08-04T00:03:10.371Z,99955.38
2022-08-04T00:03:51.437Z,99953.78
2022-08-04T00:04:36.034Z,99953.28
2022-08-04T00:05:13.362Z,99954.00
2022-08-04T00:06:01.394Z,99956.41
2022-08-04T00:06:51.978Z,99954.31
2022-08-04T00:07:44.691Z,99955.91
2022-08-04T00:08:26.219Z,99958.66
2022-08-04T00:09:05.634Z,99966.19
2022-08-04T00:09:44.650Z,99962.31
2022-08-04T00:10:21.268Z,99962.31
2022-08-04T00:10:59.971Z,99954.09
2022-08-04T00:11:33.698Z,99966.31
2022-08-04T00:12:10.579Z,99966.78
2022-08-04T00:12:47.310Z,99958.56
2022-08-04T00:13:23.440Z,99959.34
2022-08-04T00:14:07.846Z,99960.16
2022-08-04T00:14:48.097Z,99951.94
2022-08-04T00:15:23.595Z,99955.00
2022-08-04T00:15:59.267Z,99959.03
2022-08-04T00:16:37.849Z,99953.53
2022-08-04T00:17:13.744Z,99949.53
2022-08-04T00:17:49.495Z,99955.81
2022-08-04T00:18:27.636Z,99957.75
2022-08-04T00:19:06.773Z,99952.75
2022-08-04T00:19:42.157Z,99960.97
2022-08-04T00:20:19.602Z,99948.88
2022-08-04T00:21:00.487Z,99952.38
2022-08-04T00:21:37.710Z,99949.66
2022-08-04T00:22:14.363Z,99950.44
2022-08-04T00:22:48.266Z,99947.72
2022-08-04T00:23:20.458Z,99954.78
2022-08-04T00:24:11.090Z,99939.50
2022-08-04T00:24:45.495Z,99949.66
2022-08-04T00:25:18.030Z,99955.94
2022-08-04T00:25:52.831Z,99952.06
2022-08-04T00:26:28.569Z,99952.06
2022-08-04T00:27:01.215Z,99949.31
2022-08-04T00:27:36.592Z,99949.31
2022-08-04T00:28:09.422Z,99954.09
2022-08-04T00:28:42.826Z,99949.66
2022-08-04T00:29:18.323Z,99949.31
2022-08-04T00:29:51.552Z,99950.44
2022-08-04T00:30:25.706Z,99960.59
2022-08-04T00:31:00.602Z,99948.06
2022-08-04T00:31:57.019Z,99958.56
2022-08-04T00:32:34.661Z,99954.91
2022-08-04T00:33:07.613Z,99951.34
2022-08-04T00:33:40.004Z,99958.44
2022-08-04T00:34:18.497Z,99957.31
2022-08-04T00:34:50.889Z,99956.50
2022-08-04T00:35:25.028Z,99952.97
2022-08-04T00:36:02.199Z,99952.63
2022-08-04T00:36:35.025Z,99952.63
2022-08-04T00:37:07.939Z,99955.38
2022-08-04T00:37:43.368Z,99955.81
2022-08-04T00:38:16.949Z,99957.75
2022-08-04T00:38:49.988Z,99960.50
2022-08-04T00:39:25.520Z,99956.94
2022-08-04T00:39:58.396Z,99962.44
2022-08-04T00:40:42.551Z,99962.44
2022-08-04T00:41:28.799Z,99961.19
2022-08-04T00:42:24.045Z,99967.00
2022-08-04T00:43:11.570Z,99962.66
2022-08-04T00:43:57.253Z,99957.97
2022-08-04T00:44:42.830Z,99965.06
2022-08-04T00:46:10.573Z,99962.66
2022-08-04T00:46:52.987Z,99960.97
2022-08-04T00:47:40.592Z,99959.34
2022-08-04T00:48:19.994Z,99955.47
2022-08-04T00:49:19.991Z,99956.13
2022-08-04T00:50:08.511Z,99963.91
2022-08-04T00:50:54.107Z,99962.75
2022-08-04T00:51:38.393Z,99960.81
2022-08-04T00:52:32.222Z,99955.34
2022-08-04T00:53:11.358Z,99968.59
2022-08-04T00:53:55.354Z,99956.03
2022-08-04T00:54:40.822Z,99963.09
2022-08-04T00:55:38.988Z,99975.19
2022-08-04T00:56:31.679Z,99971.19
2022-08-04T00:57:33.458Z,99978.59
2022-08-04T00:58:24.174Z,99976.19
2022-08-04T00:59:04.749Z,99978.44
2022-08-04T00:59:48.471Z,99976.50
2022-08-04T01:00:23.904Z,99983.28
2022-08-04T01:01:01.559Z,99980.16
2022-08-04T01:01:44.850Z,99974.69
2022-08-04T01:02:31.750Z,99985.19
2022-08-04T01:03:14.643Z,99977.78
2022-08-04T01:03:56.995Z,99987.59
2022-08-04T01:04:47.770Z,99976.19
2022-08-04T01:05:28.348Z,99980.06
2022-08-04T01:06:21.216Z,99979.63
2022-08-04T01:07:13.024Z,99981.19
2022-08-04T01:08:07.452Z,99976.88
2022-08-04T01:08:50.055Z,99982.69
2022-08-04T01:09:36.521Z,99981.19
2022-08-04T01:10:17.709Z,99976.88
2022-08-04T01:11:06.695Z,99981.19
2022-08-04T01:11:58.110Z,99976.06
2022-08-04T01:12:54.831Z,99984.59
2022-08-04T01:13:53.575Z,99981.44
2022-08-04T01:14:46.833Z,99985.75
2022-08-04T01:15:26.552Z,99984.59
2022-08-04T01:16:03.151Z,99985.41
2022-08-04T01:16:48.837Z,99982.34
2022-08-04T01:17:24.923Z,99983.16
2022-08-04T01:18:05.527Z,99980.06
2022-08-04T01:18:47.378Z,99981.75
2022-08-04T01:19:45.492Z,99982.56
2022-08-04T01:20:24.710Z,99979.47
2022-08-04T01:21:23.154Z,99988.16
2022-08-04T01:22:27.542Z,99973.53
2022-08-04T01:23:44.237Z,99977.28
2022-08-04T01:24:32.360Z,99979.72
2022-08-04T01:25:39.210Z,99987.13
2022-08-04T01:26:53.874Z,99980.84
2022-08-04T01:27:50.379Z,99988.25
2022-08-04T01:28:34.325Z,99991.44
2022-08-04T01:29:14.851Z,99991.44
2022-08-04T01:29:55.580Z,99987.91
2022-08-04T01:30:28.931Z,99993.03
2022-08-04T01:31:08.059Z,100000.13
2022-08-04T01:31:58.744Z,99991.09
2022-08-04T01:32:35.514Z,99996.56
2022-08-04T01:33:15.813Z,99997.38
2022-08-04T01:34:03.314Z,99990.88
2022-08-04T01:34:46.175Z,99991.31
2022-08-04T01:35:46.736Z,99991.44
2022-08-04T01:36:20.811Z,99994.53
2022-08-04T01:37:00.260Z,99988.69
2022-08-04T01:37:51.490Z,99988.25
2022-08-04T01:38:28.790Z,99986.63
2022-08-04T01:39:23.102Z,99995.34
2022-08-04T01:40:04.846Z,99988.94
2022-08-04T01:40:38.421Z,99992.47
2022-08-04T01:41:15.191Z,99988.56
2022-08-04T01:41:58.511Z,99986.63
2022-08-04T01:42:35.397Z,99992.13
2022-08-04T01:43:10.226Z,99990.50
2022-08-04T01:43:46.309Z,99987.44
2022-08-04T01:44:26.491Z,99987.91
2022-08-04T01:45:00.818Z,99985.84
2022-08-04T01:45:36.927Z,99988.25
2022-08-04T01:46:12.016Z,99985.50
2022-08-04T01:46:46.598Z,99984.38
2022-08-04T01:47:24.513Z,99987.13
2022-08-04T01:47:58.075Z,99989.84
2022-08-04T01:48:30.869Z,99993.41
2022-08-04T01:49:08.305Z,99988.38
2022-08-04T01:49:45.606Z,99982.09
2022-08-04T01:50:20.414Z,99985.63
2022-08-04T01:50:53.485Z,99986.44
2022-08-04T01:51:26.549Z,99988.84
2022-08-04T01:52:02.255Z,99987.69
2022-08-04T01:52:36.356Z,99985.75
2022-08-04T01:53:11.783Z,99994.44
2022-08-04T01:53:44.972Z,99986.22
2022-08-04T01:54:19.150Z,99978.81
2022-08-04T01:54:54.270Z,99992.50
2022-08-04T01:55:55.120Z,99985.41
2022-08-04T01:56:25.273Z,99982.88
2022-08-04T01:56:58.813Z,99981.75
2022-08-04T01:57:45.967Z,99989.63
2022-08-04T01:58:22.272Z,99985.19
2022-08-04T01:58:58.160Z,99980.47
2022-08-04T01:59:39.623Z,99987.56
2022-08-04T02:00:13.617Z,99981.28
2022-08-04T02:00:56.602Z,99979.72
2022-08-04T02:01:31.663Z,99984.38
2022-08-04T02:02:05.395Z,99981.63
2022-08-04T02:02:37.900Z,99976.16
2022-08-04T02:03:14.282Z,99984.38
2022-08-04T02:04:20.503Z,99981.97
2022-08-04T02:04:39.077Z,99981.84
2022-08-04T02:05:14.417Z,99983.47
2022-08-04T02:06:02.948Z,99980.72
2022-08-04T02:06:44.358Z,99979.81
2022-08-04T02:07:34.162Z,99983.31
2022-08-04T02:08:16.687Z,99970.78
2022-08-04T02:09:00.474Z,99971.59
2022-08-04T02:09:54.399Z,99972.34
2022-08-04T02:10:32.558Z,99977.06
2022-08-04T02:11:14.122Z,99973.97
2022-08-04T02:11:56.904Z,99975.56
2022-08-04T02:12:44.825Z,99967.69
2022-08-04T02:13:24.749Z,99979.81
2022-08-04T02:14:09.309Z,99972.72
2022-08-04T02:14:51.407Z,99975.91
2022-08-04T02:15:33.133Z,99973.53
2022-08-04T02:16:11.961Z,99975.09
2022-08-04T02:16:47.002Z,99975.91
2022-08-04T02:17:33.153Z,99969.63
2022-08-04T02:18:05.851Z,99972.44
2022-08-04T02:18:48.338Z,99976.91
2022-08-04T02:19:31.679Z,99972.72
2022-08-04T02:20:09.577Z,99975.47
2022-08-04T02:20:46.754Z,99973.97
2022-08-04T02:21:23.450Z,99976.72
2022-08-04T02:21:58.527Z,99977.50
2022-08-04T02:22:34.104Z,99981.84
2022-08-04T02:23:12.410Z,99974.44
2022-08-04T02:23:47.115Z,99974.44
2022-08-04T02:24:25.460Z,99985.03
2022-08-04T02:25:07.843Z,99976.81
2022-08-04T02:25:47.079Z,99983.09
2022-08-04T02:26:23.930Z,99977.63
2022-08-04T02:26:57.251Z,99976.50
2022-08-04T02:28:00.244Z,99976.97
2022-08-04T02:28:33.585Z,99975.25
2022-08-04T02:29:15.832Z,99975.25
2022-08-04T02:29:57.026Z,99978.78
2022-08-04T02:30:42.353Z,99968.59
2022-08-04T02:31:28.706Z,99974.44
2022-08-04T02:32:07.697Z,99964.63
2022-08-04T02:32:42.661Z,99970.56
2022-08-04T02:33:20.244Z,99970.22
2022-08-04T02:34:04.245Z,99973.31
2022-08-04T02:34:47.892Z,99967.84
2022-08-04T02:35:26.652Z,99971.72
2022-08-04T02:36:05.630Z,99970.09
2022-08-04T02:36:40.123Z,99975.25
2022-08-04T02:37:13.240Z,99967.84
2022-08-04T02:37:51.527Z,99970.22
2022-08-04T02:38:31.889Z,99971.34
2022-08-04T02:39:07.191Z,99977.72
2022-08-04T02:39:48.705Z,99969.19
2022-08-04T02:40:22.246Z,99974.31
2022-08-04T02:40:59.241Z,99980.25
2022-08-04T02:41:34.014Z,99971.22
2022-08-04T02:42:10.920Z,99965.44
2022-08-04T02:42:46.132Z,99972.84
2022-08-04T02:43:51.469Z,99971.72
2022-08-04T02:44:17.014Z,99955.50
2022-08-04T02:44:52.432Z,99974.31
2022-08-04T02:45:26.578Z,99969.63
2022-08-04T02:46:03.750Z,99977.84
2022-08-04T02:46:53.096Z,99978.53
2022-08-04T02:48:29.227Z,99971.13
2022-08-04T02:48:31.086Z,99968.69
2022-08-04T02:49:09.446Z,99965.97
2022-08-04T02:49:42.543Z,99969.50
2022-08-04T02:50:15.195Z,99968.38
2022-08-04T02:51:06.014Z,99975.34
2022-08-04T02:51:41.845Z,99972.25
2022-08-04T02:52:19.404Z,99960.97
2022-08-04T02:52:52.746Z,99971.91
2022-08-04T02:53:27.222Z,99971.59
2022-08-04T02:54:03.457Z,99968.84
2022-08-04T02:54:39.310Z,99976.03
2022-08-04T02:55:13.938Z,99966.56
2022-08-04T02:55:52.416Z,99967.34
2022-08-04T02:56:31.114Z,99965.75
2022-08-04T02:57:08.620Z,99970.91
2022-08-04T02:57:44.425Z,99967.03
2022-08-04T02:58:20.308Z,99962.81
2022-08-04T02:58:56.794Z,99967.94
2022-08-04T02:59:39.760Z,99960.88
2022-08-04T03:00:15.966Z,99968.59
2022-08-04T03:00:50.911Z,99970.22
2022-08-04T03:01:27.017Z,99966.34
2022-08-04T03:01:59.263Z,99970.34
2022-08-04T03:02:41.358Z,99968.41
2022-08-04T03:03:26.703Z,99963.28
2022-08-04T03:04:24.825Z,99969.09
2022-08-04T03:05:05.352Z,99975.69
2022-08-04T03:06:01.257Z,99972.63
2022-08-04T03:07:14.376Z,99968.59
2022-08-04T03:08:12.678Z,99972.50
2022-08-04T03:09:25.851Z,99972.50
2022-08-04T03:10:23.018Z,99972.50
2022-08-04T03:11:16.690Z,99968.16
2022-08-04T03:12:22.031Z,99972.50
2022-08-04T03:13:31.078Z,99971.22
2022-08-04T03:14:31.022Z,99967.25
2022-08-04T03:15:32.071Z,99966.44
2022-08-04T03:16:30.742Z,99971.13
2022-08-04T03:17:24.706Z,99972.00
2022-08-04T03:18:23.097Z,99969.72
2022-08-04T03:19:36.744Z,99963.44
2022-08-04T03:20:41.732Z,99959.13
2022-08-04T03:21:53.068Z,99962.66
2022-08-04T03:23:12.577Z,99960.25
2022-08-04T03:24:29.713Z,99962.41
2022-08-04T03:25:24.360Z,99970.59
2022-08-04T03:26:44.510Z,99965.81
2022-08-04T03:27:44.697Z,99970.00
2022-08-04T03:28:59.143Z,99967.75
2022-08-04T03:29:55.590Z,99968.56
2022-08-04T03:30:46.354Z,99964.00
2022-08-04T03:31:48.810Z,99964.44
2022-08-04T03:33:09.254Z,99969.91
2022-08-04T03:33:52.512Z,99966.06
2022-08-04T03:34:40.098Z,99963.78
2022-08-04T03:35:45.992Z,99970.06
2022-08-04T03:36:58.876Z,99968.47
2022-08-04T03:38:16.188Z,99976.34
2022-08-04T03:39:15.499Z,99968.13
2022-08-04T03:40:14.191Z,99975.66
2022-08-04T03:41:12.989Z,99970.63
2022-08-04T03:42:24.932Z,99974.66
2022-08-04T03:43:57.153Z,99966.13
2022-08-04T03:44:52.669Z,99970.09
2022-08-04T03:46:01.948Z,99968.59
2022-08-04T03:46:54.917Z,99976.97
2022-08-04T03:48:10.200Z,99974.69
2022-08-04T03:49:12.437Z,99977.53
2022-08-04T03:50:17.142Z,99980.41
2022-08-04T03:51:35.455Z,99974.56
2022-08-04T03:52:38.496Z,99974.13
2022-08-04T03:53:26.345Z,99979.25
2022-08-04T03:54:27.738Z,99974.25
2022-08-04T03:55:43.502Z,99980.16
2022-08-04T03:56:40.823Z,99981.47
2022-08-04T03:57:50.433Z,99972.94
2022-08-04T03:58:51.908Z,99982.72
2022-08-04T04:00:02.207Z,99976.91
2022-08-04T04:01:00.616Z,99984.66
2022-08-04T04:02:06.898Z,99989.38
2022-08-04T04:03:08.310Z,99982.59
2022-08-04T04:04:12.381Z,99985.03
2022-08-04T04:05:12.207Z,99981.91
2022-08-04T04:06:30.544Z,99982.59
2022-08-04T04:07:36.177Z,99981.16
2022-08-04T04:08:32.975Z,99991.75
2022-08-04T04:09:56.787Z,99982.72
2022-08-04T04:10:49.609Z,99983.88
2022-08-04T04:11:56.752Z,99981.59
2022-08-04T04:12:54.794Z,99989.00
2022-08-04T04:14:01.918Z,99989.00
2022-08-04T04:14:50.220Z,99991.41
2022-08-04T04:15:57.191Z,99989.13
2022-08-04T04:16:58.394Z,99993.13
2022-08-04T04:17:59.799Z,99993.56
2022-08-04T04:18:46.819Z,99991.75
2022-08-04T04:19:47.687Z,99993.03
2022-08-04T04:20:53.681Z,99985.16
2022-08-04T04:21:45.529Z,99993.34
2022-08-04T04:22:47.482Z,99995.66
2022-08-04T04:23:34.597Z,99992.91
2022-08-04T04:24:39.116Z,99990.19
2022-08-04T04:25:27.054Z,99995.66
2022-08-04T04:26:18.830Z,99998.84
2022-08-04T04:27:01.927Z,99999.63
2022-08-04T04:28:45.898Z,100000.44
2022-08-04T04:29:06.643Z,100002.72
2022-08-04T04:30:01.531Z,100001.56
2022-08-04T04:30:50.485Z,100001.25
2022-08-04T04:31:54.021Z,99999.63
2022-08-04T04:32:56.045Z,99993.34
2022-08-04T04:33:44.210Z,99990.97
2022-08-04T04:34:26.797Z,99988.69
2022-08-04T04:35:19.343Z,99993.34
2022-08-04T04:36:03.504Z,100002.72
2022-08-04T04:36:56.170Z,100003.50
2022-08-04T04:37:48.689Z,99999.84
2022-08-04T04:38:52.916Z,99995.41
2022-08-04T04:39:36.287Z,99997.81
2022-08-04T04:40:29.043Z,99999.41
2022-08-04T04:41:20.202Z,100001.34
2022-08-04T04:42:09.472Z,100003.63
2022-08-04T04:43:01.824Z,100004.78
2022-08-04T04:43:56.623Z,100000.88
2022-08-04T04:44:54.221Z,100000.88
2022-08-04T04:45:31.336Z,100002.47
2022-08-04T04:46:10.659Z,99999.06
2022-08-04T04:47:03.935Z,100000.66
2022-08-04T04:48:08.341Z,99997.91
2022-08-04T04:48:51.065Z,100001.13
2022-08-04T04:49:31.658Z,99993.34
2022-08-04T04:50:10.673Z,100005.13
2022-08-04T04:51:01.762Z,100004.31
2022-08-04T04:51:42.653Z,100000.78
2022-08-04T04:52:31.425Z,99999.63
2022-08-04T04:53:12.352Z,99994.97
2022-08-04T04:53:51.648Z,100000.44
2022-08-04T04:54:40.636Z,99994.50
2022-08-04T04:55:15.966Z,100003.28
2022-08-04T04:55:59.560Z,99999.06
2022-08-04T04:56:41.156Z,99995.66
2022-08-04T04:57:16.382Z,99999.97
2022-08-04T04:57:55.442Z,99993.34
2022-08-04T04:58:31.973Z,99999.31
2022-08-04T04:59:10.222Z,99996.22
2022-08-04T04:59:52.881Z,99994.28
2022-08-04T05:00:34.783Z,99993.94
2022-08-04T05:01:46.085Z,99989.28
2022-08-04T05:02:49.888Z,99992.81
2022-08-04T05:03:46.818Z,99990.06
2022-08-04T05:04:54.830Z,99990.88
2022-08-04T05:05:48.173Z,99992.13
2022-08-04T05:06:39.537Z,99990.66
2022-08-04T05:07:41.056Z,99991.91
2022-08-04T05:08:45.266Z,100002.53
2022-08-04T05:09:40.421Z,99999.00
2022-08-04T05:10:27.858Z,100000.22
2022-08-04T05:11:38.461Z,99999.78
2022-08-04T05:14:33.221Z,99999.31
2022-08-04T05:14:37.359Z,99998.88
2022-08-04T05:14:41.590Z,99995.56
2022-08-04T05:15:23.878Z,100000.66
2022-08-04T05:16:05.570Z,99999.22
2022-08-04T05:16:46.228Z,100004.69
2022-08-04T05:17:24.108Z,100001.63
2022-08-04T05:18:02.350Z,99998.88
2022-08-04T05:18:41.566Z,100003.19
2022-08-04T05:19:24.246Z,99994.84
2022-08-04T05:20:04.422Z,100005.94
2022-08-04T05:20:40.976Z,100002.84
2022-08-04T05:21:28.843Z,100000.91
2022-08-04T05:22:09.223Z,100008.00
2022-08-04T05:22:55.547Z,100003.66
2022-08-04T05:23:31.200Z,100004.78
2022-08-04T05:24:07.680Z,100004.09
2022-08-04T05:24:45.938Z,100008.44
2022-08-04T05:25:23.941Z,100003.78
2022-08-04T05:26:02.891Z,100003.44
2022-08-04T05:26:41.511Z,100003.44
2022-08-04T05:27:17.524Z,100003.88
2022-08-04T05:27:58.513Z,100012.56
2022-08-04T05:28:36.983Z,100012.56
2022-08-04T05:29:13.688Z,100012.22
2022-08-04T05:29:56.145Z,100012.09
2022-08-04T05:30:30.895Z,100005.81
2022-08-04T05:31:13.283Z,100012.91
2022-08-04T05:31:50.203Z,100010.50
2022-08-04T05:32:29.873Z,100013.25
2022-08-04T05:33:09.846Z,100008.91
2022-08-04T05:33:51.635Z,100009.72
2022-08-04T05:34:29.362Z,100006.03
2022-08-04T05:35:10.429Z,100006.97
2022-08-04T05:36:17.016Z,100015.97
2022-08-04T05:36:45.783Z,100015.22
2022-08-04T05:37:20.852Z,100015.97
2022-08-04T05:38:01.367Z,100015.66
2022-08-04T05:38:41.074Z,100021.94
2022-08-04T05:39:19.144Z,100023.88
2022-08-04T05:39:56.160Z,100019.19
2022-08-04T05:40:30.956Z,100022.41
2022-08-04T05:41:04.101Z,100020.78
2022-08-04T05:41:45.620Z,100027.88
2022-08-04T05:42:24.457Z,100034.50
2022-08-04T05:42:57.661Z,100023.53
2022-08-04T05:43:33.703Z,100024.34
2022-08-04T05:44:08.908Z,100026.38
2022-08-04T05:44:46.340Z,100022.03
2022-08-04T05:45:25.576Z,100025.47
2022-08-04T05:45:58.803Z,100034.03
2022-08-04T05:46:31.802Z,100024.19
2022-08-04T05:47:08.639Z,100031.75
2022-08-04T05:47:41.019Z,100023.88
2022-08-04T05:48:16.488Z,100030.63
2022-08-04T05:48:52.372Z,100034.94
2022-08-04T05:49:26.340Z,100027.88
2022-08-04T05:50:03.332Z,100027.53
2022-08-04T05:50:36.747Z,100025.59
2022-08-04T05:51:11.344Z,100025.25
2022-08-04T05:51:47.275Z,100026.06
2022-08-04T05:52:21.402Z,100027.63
2022-08-04T05:53:01.424Z,100024.56
2022-08-04T05:53:37.564Z,100029.59
2022-08-04T05:54:11.081Z,100030.03
2022-08-04T05:54:43.975Z,100026.50
2022-08-04T05:55:57.115Z,100028.56
2022-08-04T05:56:14.729Z,100027.63
2022-08-04T05:56:51.022Z,100026.50
2022-08-04T05:57:24.071Z,100030.84
2022-08-04T05:58:00.174Z,100031.66
2022-08-04T05:58:33.125Z,100032.09
2022-08-04T05:59:06.862Z,100031.44
2022-08-04T05:59:46.705Z,100025.16
2022-08-04T06:00:39.044Z,100031.44
2022-08-04T06:01:15.584Z,100026.28
2022-08-04T06:01:55.635Z,100032.66
2022-08-04T06:02:30.652Z,100030.84
2022-08-04T06:03:06.673Z,100026.28
2022-08-04T06:03:43.593Z,100017.00
2022-08-04T06:04:18.886Z,100014.88
2022-08-04T06:04:55.307Z,100013.84
2022-08-04T06:05:28.522Z,100018.31
2022-08-04T06:06:01.848Z,100014.63
2022-08-04T06:06:38.752Z,100024.22
2022-08-04T06:07:11.399Z,100022.72
2022-08-04T06:08:12.667Z,100020.13
2022-08-04T06:08:39.278Z,100014.25
2022-08-04T06:09:14.978Z,100016.78
2022-08-04T06:09:47.155Z,100022.03
2022-08-04T06:10:22.046Z,100021.78
2022-08-04T06:11:07.840Z,100019.94
2022-08-04T06:12:03.685Z,100019.25
2022-08-04T06:12:41.124Z,100022.34
2022-08-04T06:13:48.786Z,100016.06
2022-08-04T06:14:18.646Z,100024.97
2022-08-04T06:14:56.544Z,100021.41
2022-08-04T06:15:33.162Z,100018.69
2022-08-04T06:16:28.610Z,100017.91
2022-08-04T06:18:33.435Z,100017.91
2022-08-04T06:19:56.132Z,100016.31
2022-08-04T06:20:02.377Z,100024.16
2022-08-04T06:20:19.083Z,100018.34
2022-08-04T06:20:59.407Z,100023.59
2022-08-04T06:21:35.346Z,100015.13
2022-08-04T06:22:11.288Z,100021.50
2022-08-04T06:22:49.099Z,100023.53
2022-08-04T06:23:28.133Z,100017.00
2022-08-04T06:24:04.578Z,100023.44
2022-08-04T06:24:42.488Z,100022.75
2022-08-04T06:25:20.705Z,100014.53
2022-08-04T06:25:59.977Z,100020.00
2022-08-04T06:26:34.947Z,100027.44
2022-08-04T06:27:11.611Z,100020.81
2022-08-04T06:27:44.829Z,100020.44
2022-08-04T06:28:19.755Z,100022.03
2022-08-04T06:28:55.892Z,100020.44
2022-08-04T06:29:34.696Z,100025.84
2022-08-04T06:30:14.218Z,100026.50
2022-08-04T06:30:49.928Z,100028.38
2022-08-04T06:32:30.769Z,100026.75
2022-08-04T06:32:47.840Z,100033.72
2022-08-04T06:33:26.686Z,100029.84
2022-08-04T06:34:06.089Z,100029.84
2022-08-04T06:34:38.880Z,100027.91
2022-08-04T06:35:11.502Z,100024.81
2022-08-04T06:35:46.259Z,100028.38
2022-08-04T06:36:18.877Z,100024.81
2022-08-04T06:36:51.867Z,100031.44
2022-08-04T06:37:43.322Z,100029.50
2022-08-04T06:38:16.571Z,100027.09
2022-08-04T06:38:58.422Z,100023.22
2022-08-04T06:39:33.214Z,100027.56
2022-08-04T06:40:29.771Z,100024.44
2022-08-04T06:41:09.490Z,100023.22
2022-08-04T06:42:17.331Z,100029.84
2022-08-04T06:42:34.725Z,100022.75
2022-08-04T06:43:10.651Z,100027.09
2022-08-04T06:43:44.115Z,100025.94
2022-08-04T06:44:22.337Z,100024.81
2022-08-04T06:44:59.230Z,100015.78
2022-08-04T06:45:35.190Z,100027.56
2022-08-04T06:46:10.073Z,100020.91
2022-08-04T06:46:43.879Z,100021.69
2022-08-04T06:47:19.689Z,100019.75
2022-08-04T06:47:53.692Z,100021.03
2022-08-04T06:48:33.147Z,100025.03
2022-08-04T06:49:11.395Z,100018.41
2022-08-04T06:51:27.411Z,100021.94
2022-08-04T06:51:28.204Z,100016.81
2022-08-04T06:51:40.986Z,100018.28
2022-08-04T06:52:23.125Z,100013.72
2022-08-04T06:52:55.401Z,100017.00
2022-08-04T06:53:28.089Z,100017.47
2022-08-04T06:54:02.961Z,100012.44
2022-08-04T06:54:35.140Z,100016.47
2022-08-04T06:55:08.526Z,100018.84
2022-08-04T06:55:45.594Z,100023.19
2022-08-04T06:56:19.438Z,100016.56
2022-08-04T06:56:56.098Z,100020.53
2022-08-04T06:57:30.521Z,100015.84
2022-08-04T06:58:03.762Z,100011.97
2022-08-04T06:58:40.211Z,100015.59
2022-08-04T06:59:14.407Z,100018.44
2022-08-04T06:59:49.595Z,100020.13
2022-08-04T07:00:24.462Z,100019.47
2022-08-04T07:01:02.241Z,100017.13
2022-08-04T07:01:37.954Z,100014.16
2022-08-04T07:02:18.339Z,100012.75
2022-08-04T07:02:51.490Z,100012.75
2022-08-04T07:03:26.337Z,100011.69
2022-08-04T07:03:59.783Z,100017.38
2022-08-04T07:04:35.045Z,100010.81
2022-08-04T07:05:10.850Z,100006.59
2022-08-04T07:05:43.541Z,100007.81
2022-08-04T07:06:19.174Z,100008.63
2022-08-04T07:06:51.406Z,100004.34
2022-08-04T07:07:36.572Z,100000.78
2022-08-04T07:08:20.494Z,100007.00
2022-08-04T07:08:53.012Z,100005.06
2022-08-04T07:09:25.523Z,100006.28
2022-08-04T07:10:00.364Z,100009.84
2022-08-04T07:10:32.878Z,100004.34
2022-08-04T07:11:05.902Z,99999.66
2022-08-04T07:11:44.585Z,100007.09
2022-08-04T07:12:20.452Z,100005.94
2022-08-04T07:12:53.984Z,100009.50
2022-08-04T07:13:30.590Z,100002.84
2022-08-04T07:14:05.136Z,100009.16
2022-08-04T07:14:40.108Z,100011.09
2022-08-04T07:15:14.496Z,100015.44
2022-08-04T07:15:48.726Z,100009.16
2022-08-04T07:16:30.706Z,100013.38
2022-08-04T07:17:04.606Z,100010.22
2022-08-04T07:17:39.759Z,100007.91
2022-08-04T07:18:14.718Z,100007.56
2022-08-04T07:18:47.024Z,99998.16
2022-08-04T07:19:21.960Z,100010.38
2022-08-04T07:19:56.858Z,100011.19
2022-08-04T07:20:30.458Z,100013.94
2022-08-04T07:21:11.343Z,100013.47
2022-08-04T07:22:24.851Z,100011.09
2022-08-04T07:22:39.138Z,100007.91
2022-08-04T07:23:17.357Z,100013.38
2022-08-04T07:23:50.253Z,100021.28
2022-08-04T07:24:32.710Z,100015.34
2022-08-04T07:25:12.888Z,100006.66
2022-08-04T07:25:59.652Z,100014.03
2022-08-04T07:26:45.219Z,100010.22
2022-08-04T07:27:47.804Z,100016.22
2022-08-04T07:28:13.967Z,100013.72
2022-08-04T07:28:49.665Z,100012.28
2022-08-04T07:29:22.941Z,100011.22
2022-08-04T07:29:58.770Z,100014.75
2022-08-04T07:30:33.976Z,100010.88
2022-08-04T07:31:09.771Z,100013.97
2022-08-04T07:31:45.532Z,100015.47
2022-08-04T07:32:20.117Z,100015.41
2022-08-04T07:32:55.645Z,100007.84
2022-08-04T07:33:28.493Z,100010.97
2022-08-04T07:34:17.100Z,100010.97
2022-08-04T07:34:59.648Z,100012.09
2022-08-04T07:36:03.780Z,100012.19
2022-08-04T07:36:30.107Z,100018.56
2022-08-04T07:37:05.004Z,100010.06
2022-08-04T07:37:39.994Z,100022.75
2022-08-04T07:38:16.218Z,100017.31
2022-08-04T07:38:51.321Z,100019.00
2022-08-04T07:39:29.627Z,100016.25
2022-08-04T07:40:02.511Z,100017.13
2022-08-04T07:40:39.181Z,100009.00
2022-08-04T07:42:07.995Z,100013.06
2022-08-04T07:42:40.591Z,100019.00
2022-08-04T07:43:15.901Z,100010.41
2022-08-04T07:43:51.556Z,100017.13
2022-08-04T07:44:23.986Z,100017.94
2022-08-04T07:44:59.650Z,100015.63
2022-08-04T07:45:32.835Z,100006.22
2022-08-04T07:46:05.847Z,100003.13
2022-08-04T07:46:40.746Z,100003.91
2022-08-04T07:47:13.505Z,100011.78
2022-08-04T07:48:05.260Z,100007.91
2022-08-04T07:48:40.950Z,100013.75
2022-08-04T07:49:14.071Z,100009.50
2022-08-04T07:50:13.393Z,100015.81
2022-08-04T07:50:45.972Z,100006.41
2022-08-04T07:51:18.807Z,100004.06
2022-08-04T07:51:54.082Z,100007.69
2022-08-04T07:52:26.932Z,100004.94
2022-08-04T07:53:52.984Z,100007.34
2022-08-04T07:53:56.581Z,99999.03
2022-08-04T07:54:32.557Z,100008.84
2022-08-04T07:55:07.344Z,100004.16
2022-08-04T07:55:42.474Z,100007.69
2022-08-04T07:56:16.789Z,100010.44
2022-08-04T07:56:49.515Z,100009.66
2022-08-04T07:57:41.763Z,100008.50
2022-08-04T07:58:16.176Z,100007.69
2022-08-04T07:58:50.942Z,100001.06
2022-08-04T07:59:23.313Z,100004.69
2022-08-04T07:59:58.137Z,100005.94
2022-08-04T08:00:30.809Z,100009.13
2022-08-04T08:01:05.842Z,100003.63
2022-08-04T08:01:38.519Z,100008.34
2022-08-04T08:02:14.330Z,100011.44
2022-08-04T08:02:50.577Z,100011.44
2022-08-04T08:03:27.456Z,100008.69
2022-08-04T08:04:01.756Z,100010.66
2022-08-04T08:04:36.645Z,100009.47
2022-08-04T08:05:14.319Z,100009.94
2022-08-04T08:06:18.163Z,100005.22
2022-08-04T08:06:43.442Z,100011.88
2022-08-04T08:07:15.930Z,100016.25
2022-08-04T08:07:54.724Z,100011.97
2022-08-04T08:08:27.439Z,100012.84
2022-08-04T08:09:12.541Z,100013.72
2022-08-04T08:09:48.605Z,100005.09
2022-08-04T08:10:20.948Z,100011.47
2022-08-04T08:10:56.142Z,100008.78
2022-08-04T08:12:37.958Z,100014.41
2022-08-04T08:12:38.550Z,100008.09
2022-08-04T08:13:16.335Z,100010.41
2022-08-04T08:13:51.623Z,100005.69
2022-08-04T08:14:24.946Z,100009.66
2022-08-04T08:15:00.628Z,100009.31
2022-08-04T08:15:33.584Z,100010.13
2022-08-04T08:16:06.231Z,100007.38
2022-08-04T08:16:41.076Z,100010.91
2022-08-04T08:17:13.989Z,100008.16
2022-08-04T08:17:58.812Z,100005.06
2022-08-04T08:18:32.933Z,100012.53
2022-08-04T08:19:05.645Z,100006.63
2022-08-04T08:19:41.405Z,100006.28
2022-08-04T08:20:29.502Z,100010.63
2022-08-04T08:21:05.519Z,100011.44